createdAt,value
2022-12-17T00:00:49.177Z,58.23
2022-12-17T00:03:41.077Z,72.07
2022-12-17T00:06:27.499Z,77.97
2022-12-17T00:09:13.995Z,71.97
2022-12-17T00:12:05.508Z,65.17
2022-12-17T00:14:51.307Z,88.67
2022-12-17T00:17:39.934Z,81.97
2022-12-17T00:20:26.224Z,78.47
2022-12-17T00:23:17.764Z,71.33
2022-12-17T00:26:03.840Z,69.20
2022-12-17T00:28:49.648Z,120.23
2022-12-17T00:31:35.922Z,79.80
2022-12-17T00:34:23.923Z,91.50
2022-12-17T00:37:10.301Z,61.50
2022-12-17T00:39:59.221Z,68.97
2022-12-17T00:42:45.488Z,69.23
2022-12-17T00:45:31.768Z,58.73
2022-12-17T00:48:17.460Z,95.67
2022-12-17T00:51:07.054Z,63.43
2022-12-17T00:53:53.393Z,56.63
2022-12-17T00:56:40.791Z,83.63
2022-12-17T00:59:35.846Z,68.40
2022-12-17T01:02:21.761Z,55.83
2022-12-17T01:05:09.672Z,66.70
2022-12-17T01:07:59.976Z,65.13
2022-12-17T01:10:46.086Z,52.93
2022-12-17T01:13:32.542Z,64.53
2022-12-17T01:16:21.850Z,75.57
2022-12-17T01:19:08.137Z,112.00
2022-12-17T01:21:54.011Z,71.43
2022-12-17T01:24:42.960Z,93.27
2022-12-17T01:27:29.601Z,77.43
2022-12-17T01:30:15.731Z,58.50
2022-12-17T01:33:01.983Z,56.87
2022-12-17T01:35:48.138Z,57.77
2022-12-17T01:38:34.660Z,70.90
2022-12-17T01:41:22.688Z,74.20
2022-12-17T01:44:08.822Z,63.20
2022-12-17T01:46:55.805Z,59.23
2022-12-17T01:49:44.250Z,63.63
2022-12-17T01:52:31.400Z,73.07
2022-12-17T01:55:17.454Z,67.00
2022-12-17T01:58:05.078Z,60.97
2022-12-17T02:00:51.162Z,57.63
2022-12-17T02:03:38.596Z,62.13
2022-12-17T02:06:28.838Z,55.03
2022-12-17T02:09:19.687Z,54.27
2022-12-17T02:12:11.154Z,89.43
2022-12-17T02:15:00.661Z,85.37
2022-12-17T02:17:49.176Z,71.90
2022-12-17T02:20:40.216Z,62.47
2022-12-17T02:23:29.936Z,71.63
2022-12-17T02:26:17.369Z,63.47
2022-12-17T02:29:04.356Z,58.63
2022-12-17T02:31:50.983Z,67.60
2022-12-17T02:34:36.794Z,92.57
2022-12-17T02:37:22.860Z,94.73
2022-12-17T02:40:08.597Z,81.07
2022-12-17T02:42:54.627Z,68.80
2022-12-17T02:45:42.509Z,68.23
2022-12-17T02:48:29.224Z,65.23
2022-12-17T02:51:15.584Z,66.77
2022-12-17T02:54:02.373Z,68.83
2022-12-17T02:56:48.342Z,72.00
2022-12-17T02:59:34.160Z,83.20
2022-12-17T03:02:21.608Z,78.53
2022-12-17T03:05:35.577Z,77.63
2022-12-17T03:08:12.622Z,82.77
2022-12-17T03:10:58.602Z,82.83
2022-12-17T03:13:45.199Z,92.43
2022-12-17T03:16:37.305Z,102.10
2022-12-17T03:19:25.384Z,80.13
2022-12-17T03:22:11.443Z,85.43
2022-12-17T03:24:57.387Z,85.63
2022-12-17T03:27:43.434Z,98.70
2022-12-17T03:30:33.317Z,98.37
2022-12-17T03:33:23.112Z,94.40
2022-12-17T03:36:11.756Z,105.53
2022-12-17T03:38:57.153Z,81.33
2022-12-17T03:41:43.047Z,118.97
2022-12-17T03:44:29.161Z,80.07
2022-12-17T03:47:15.023Z,95.37
2022-12-17T03:50:00.959Z,92.27
2022-12-17T03:52:48.336Z,89.10
2022-12-17T03:55:30.572Z,86.13
2022-12-17T03:58:16.686Z,85.57
2022-12-17T04:01:02.813Z,90.17
2022-12-17T04:03:48.831Z,102.10
2022-12-17T04:06:34.689Z,99.17
2022-12-17T04:09:21.677Z,106.10
2022-12-17T04:12:03.831Z,107.13
2022-12-17T04:14:49.859Z,114.73
2022-12-17T04:17:35.942Z,98.97
2022-12-17T04:20:22.082Z,113.77
2022-12-17T04:23:10.282Z,105.90
2022-12-17T04:25:57.497Z,119.07
2022-12-17T04:28:43.570Z,112.80
2022-12-17T04:31:29.599Z,108.93
2022-12-17T04:34:15.681Z,100.50
2022-12-17T04:37:01.659Z,115.10
2022-12-17T04:39:47.562Z,102.57
2022-12-17T04:42:34.951Z,104.97
2022-12-17T04:45:21.079Z,110.13
2022-12-17T04:48:06.947Z,106.10
2022-12-17T04:50:52.815Z,105.70
2022-12-17T04:53:39.131Z,118.73
2022-12-17T04:56:25.704Z,103.47
2022-12-17T04:59:13.134Z,104.70
2022-12-17T05:01:59.227Z,105.03
2022-12-17T05:04:45.062Z,122.70
2022-12-17T05:07:31.206Z,114.90
2022-12-17T05:10:17.086Z,107.77
2022-12-17T05:13:14.557Z,102.83
2022-12-17T05:16:07.105Z,102.87
2022-12-17T05:18:53.184Z,103.70
2022-12-17T05:21:39.273Z,89.93
2022-12-17T05:24:25.770Z,102.83
2022-12-17T05:27:11.753Z,101.60
2022-12-17T05:29:57.836Z,105.33
2022-12-17T05:32:50.354Z,93.20
2022-12-17T05:35:36.484Z,103.03
2022-12-17T05:38:23.353Z,106.67
2022-12-17T05:41:09.647Z,112.07
2022-12-17T05:43:55.885Z,105.23
2022-12-17T05:46:41.877Z,108.80
2022-12-17T05:49:29.293Z,117.07
2022-12-17T05:52:15.397Z,121.80
2022-12-17T05:55:01.332Z,113.43
2022-12-17T05:57:51.721Z,109.27
2022-12-17T06:00:40.386Z,104.07
2022-12-17T06:03:26.343Z,114.17
2022-12-17T06:06:16.286Z,107.23
2022-12-17T06:09:02.451Z,110.90
2022-12-17T06:12:02.410Z,104.20
2022-12-17T06:14:48.805Z,106.97
2022-12-17T06:17:34.845Z,95.87
2022-12-17T06:20:20.829Z,91.90
2022-12-17T06:23:17.663Z,109.30
2022-12-17T06:26:03.716Z,106.53
2022-12-17T06:28:45.885Z,103.77
2022-12-17T06:31:31.893Z,109.40
2022-12-17T06:34:18.103Z,98.13
2022-12-17T06:37:04.570Z,105.47
2022-12-17T06:39:51.708Z,94.87
2022-12-17T06:42:37.799Z,90.47
2022-12-17T06:45:26.526Z,91.97
2022-12-17T06:48:12.637Z,100.33
2022-12-17T06:50:58.762Z,95.67
2022-12-17T06:53:44.797Z,96.37
2022-12-17T06:56:31.976Z,84.77
2022-12-17T06:59:18.102Z,79.93
2022-12-17T07:02:04.008Z,80.13
2022-12-17T07:04:49.830Z,87.03
2022-12-17T07:07:35.859Z,85.10
2022-12-17T07:10:21.908Z,79.17
2022-12-17T07:13:09.033Z,77.87
2022-12-17T07:15:54.917Z,88.70
2022-12-17T07:18:37.518Z,81.37
2022-12-17T07:21:23.767Z,88.10
2022-12-17T07:24:09.837Z,89.13
2022-12-17T07:26:55.849Z,79.30
2022-12-17T07:29:42.953Z,77.93
2022-12-17T07:32:28.678Z,88.40
2022-12-17T07:35:14.784Z,87.47
2022-12-17T07:38:00.599Z,85.43
2022-12-17T07:40:46.419Z,92.77
2022-12-17T07:43:32.883Z,80.37
2022-12-17T07:46:21.349Z,99.20
2022-12-17T07:49:07.383Z,97.40
2022-12-17T07:51:53.525Z,88.87
2022-12-17T07:54:42.864Z,89.07
2022-12-17T07:57:28.909Z,80.87
2022-12-17T08:00:14.940Z,85.47
2022-12-17T08:03:02.555Z,82.27
2022-12-17T08:05:48.873Z,71.03
2022-12-17T08:08:35.026Z,84.43
2022-12-17T08:11:20.901Z,75.13
2022-12-17T08:14:06.857Z,88.87
2022-12-17T08:16:52.961Z,73.37
2022-12-17T08:19:41.086Z,84.77
2022-12-17T08:22:26.967Z,82.90
2022-12-17T08:25:12.981Z,80.20
2022-12-17T08:27:59.022Z,70.87
2022-12-17T08:30:45.045Z,72.37
2022-12-17T08:33:30.926Z,71.87
2022-12-17T08:36:18.374Z,74.23
2022-12-17T08:39:04.452Z,71.30
2022-12-17T08:41:54.824Z,71.03
2022-12-17T08:44:41.182Z,76.90
2022-12-17T08:47:27.169Z,69.33
2022-12-17T08:50:13.310Z,65.60
2022-12-17T08:53:00.976Z,64.97
2022-12-17T08:55:46.893Z,67.57
2022-12-17T08:58:32.932Z,71.87
2022-12-17T09:01:18.262Z,68.80
2022-12-17T09:04:04.778Z,76.83
2022-12-17T09:06:50.915Z,70.70
2022-12-17T09:09:38.212Z,67.90
2022-12-17T09:12:24.529Z,79.83
2022-12-17T09:15:10.565Z,74.60
2022-12-17T09:17:56.416Z,69.23
2022-12-17T09:20:42.380Z,69.93
2022-12-17T09:23:28.660Z,79.47
2022-12-17T09:26:16.532Z,67.70
2022-12-17T09:29:02.619Z,73.23
2022-12-17T09:31:49.630Z,70.50
2022-12-17T09:34:35.689Z,75.97
2022-12-17T09:37:33.332Z,77.90
2022-12-17T09:40:21.558Z,77.63
2022-12-17T09:43:19.118Z,74.47
2022-12-17T09:46:10.441Z,68.20
2022-12-17T09:49:00.229Z,72.00
2022-12-17T09:51:47.071Z,78.03
2022-12-17T09:54:38.406Z,72.80
2022-12-17T09:57:24.623Z,71.67
2022-12-17T10:00:12.099Z,70.20
2022-12-17T10:02:58.097Z,71.77
2022-12-17T10:05:44.957Z,65.23
2022-12-17T10:08:32.876Z,62.43
2022-12-17T10:11:20.963Z,64.90
2022-12-17T10:14:06.771Z,66.23
2022-12-17T10:16:56.249Z,58.03
2022-12-17T10:19:45.087Z,54.87
2022-12-17T10:22:32.050Z,52.07
2022-12-17T10:25:20.994Z,61.90
2022-12-17T10:28:06.961Z,55.70
2022-12-17T10:30:53.087Z,57.43
2022-12-17T10:33:40.927Z,57.50
2022-12-17T10:36:39.640Z,58.40
2022-12-17T10:39:26.053Z,56.67
2022-12-17T10:42:12.070Z,58.87
2022-12-17T10:44:58.350Z,54.40
2022-12-17T10:47:44.989Z,59.50
2022-12-17T10:50:33.323Z,60.60
2022-12-17T10:53:19.460Z,55.40
2022-12-17T10:56:07.087Z,55.37
2022-12-17T10:58:53.903Z,58.50
2022-12-17T11:01:40.446Z,56.87
2022-12-17T11:04:43.093Z,53.53
2022-12-17T11:07:34.270Z,53.17
2022-12-17T11:10:21.326Z,54.07
2022-12-17T11:13:10.427Z,57.43
2022-12-17T11:15:59.310Z,54.03
2022-12-17T11:18:47.180Z,57.97
2022-12-17T11:21:38.908Z,60.67
2022-12-17T11:24:30.311Z,57.07
2022-12-17T11:27:17.963Z,57.97
2022-12-17T11:30:03.802Z,60.90
2022-12-17T11:32:55.969Z,58.97
2022-12-17T11:35:45.364Z,54.83
2022-12-17T11:38:36.187Z,59.53
2022-12-17T11:41:27.171Z,54.77
2022-12-17T11:44:17.126Z,61.00
2022-12-17T11:47:09.731Z,59.30
2022-12-17T11:49:59.772Z,62.37
2022-12-17T11:52:50.603Z,68.90
2022-12-17T11:55:39.348Z,59.63
2022-12-17T11:58:31.076Z,57.17
2022-12-17T12:01:21.629Z,54.97
2022-12-17T12:04:14.515Z,55.43
2022-12-17T12:07:06.159Z,53.97
2022-12-17T12:09:56.459Z,56.43
2022-12-17T12:12:51.372Z,60.67
2022-12-17T12:15:43.467Z,52.40
2022-12-17T12:18:35.389Z,57.53
2022-12-17T12:21:25.571Z,58.87
2022-12-17T12:24:17.167Z,59.37
2022-12-17T12:27:08.738Z,51.73
2022-12-17T12:30:02.048Z,54.83
2022-12-17T12:32:53.615Z,55.47
2022-12-17T12:35:42.185Z,54.83
2022-12-17T12:38:30.695Z,59.83
2022-12-17T12:41:27.484Z,52.43
2022-12-17T12:44:15.693Z,60.47
2022-12-17T12:47:03.621Z,57.03
2022-12-17T12:49:53.096Z,57.20
2022-12-17T12:52:40.547Z,54.60
2022-12-17T12:55:26.942Z,56.43
2022-12-17T12:58:17.161Z,42.40
2022-12-17T13:01:12.875Z,46.93
2022-12-17T13:03:59.730Z,48.30
2022-12-17T13:06:43.306Z,45.30
2022-12-17T13:09:34.870Z,45.80
2022-12-17T13:12:27.501Z,51.57
2022-12-17T13:14:57.294Z,56.13
2022-12-17T13:17:30.699Z,48.23
2022-12-17T13:20:04.145Z,44.27
2022-12-17T13:22:34.680Z,46.57
2022-12-17T13:25:17.289Z,46.57
2022-12-17T13:27:45.751Z,43.53
2022-12-17T13:30:21.739Z,39.87
2022-12-17T13:32:52.668Z,42.63
2022-12-17T13:35:25.854Z,45.60
2022-12-17T13:38:01.759Z,44.00
2022-12-17T13:40:36.105Z,45.20
2022-12-17T13:43:04.589Z,41.93
2022-12-17T13:45:35.118Z,44.10
2022-12-17T13:48:03.390Z,40.93
2022-12-17T13:50:34.289Z,42.60
2022-12-17T13:53:11.960Z,52.20
2022-12-17T13:55:40.254Z,53.57
2022-12-17T13:58:08.503Z,49.30
2022-12-17T14:00:36.863Z,52.10
2022-12-17T14:05:41.950Z,58.23
2022-12-17T14:08:15.585Z,51.83
2022-12-17T14:10:47.724Z,55.13
2022-12-17T14:13:15.503Z,48.47
2022-12-17T14:15:47.378Z,50.70
2022-12-17T14:18:17.733Z,56.83
2022-12-17T14:20:46.791Z,53.13
2022-12-17T14:23:20.874Z,52.90
2022-12-17T14:25:49.256Z,52.57
2022-12-17T14:28:24.390Z,53.10
2022-12-17T14:31:25.643Z,49.83
2022-12-17T14:33:43.596Z,52.00
2022-12-17T14:36:18.859Z,50.33
2022-12-17T14:38:54.610Z,51.43
2022-12-17T14:41:41.318Z,46.77
2022-12-17T14:44:21.337Z,46.63
2022-12-17T14:46:50.480Z,45.83
2022-12-17T14:49:19.621Z,46.77
2022-12-17T14:51:48.505Z,45.03
2022-12-17T14:54:25.667Z,46.37
2022-12-17T14:56:55.629Z,44.37
2022-12-17T14:59:27.751Z,48.83
2022-12-17T15:01:56.745Z,45.73
2022-12-17T15:04:25.432Z,46.87
2022-12-17T15:06:55.879Z,48.40
2022-12-17T15:09:25.612Z,46.30
2022-12-17T15:11:53.924Z,45.67
2022-12-17T15:14:22.281Z,47.27
2022-12-17T15:16:50.656Z,45.80
2022-12-17T15:19:18.970Z,48.00
2022-12-17T15:21:47.295Z,44.60
2022-12-17T15:24:19.299Z,46.17
2022-12-17T15:26:49.513Z,47.63
2022-12-17T15:29:17.866Z,49.37
2022-12-17T15:31:46.275Z,45.93
2022-12-17T15:34:14.790Z,43.93
2022-12-17T15:36:43.156Z,50.73
2022-12-17T15:39:12.353Z,47.90
2022-12-17T15:41:58.308Z,46.23
2022-12-17T15:44:28.356Z,47.37
2022-12-17T15:46:56.645Z,48.80
2022-12-17T15:49:25.031Z,46.13
2022-12-17T15:51:53.397Z,51.47
2022-12-17T15:54:21.657Z,54.13
2022-12-17T15:56:53.601Z,49.27
2022-12-17T15:59:22.297Z,48.40
2022-12-17T16:01:52.262Z,51.20
2022-12-17T16:04:24.913Z,52.73
2022-12-17T16:06:53.756Z,49.60
2022-12-17T16:09:24.463Z,46.03
2022-12-17T16:11:54.466Z,51.73
2022-12-17T16:14:22.895Z,49.80
2022-12-17T16:16:52.831Z,45.43
2022-12-17T16:19:21.275Z,47.27
2022-12-17T16:21:49.565Z,49.23
2022-12-17T16:24:17.957Z,41.83
2022-12-17T16:26:46.258Z,46.00
2022-12-17T16:29:14.846Z,44.47
2022-12-17T16:31:43.320Z,42.73
2022-12-17T16:34:13.679Z,40.20
2022-12-17T16:36:42.005Z,41.17
2022-12-17T16:39:10.304Z,42.93
2022-12-17T16:41:38.815Z,42.03
2022-12-17T16:44:07.240Z,41.20
2022-12-17T16:46:36.354Z,43.33
2022-12-17T16:49:06.377Z,45.33
2022-12-17T16:51:36.184Z,49.30
2022-12-17T16:54:06.693Z,39.80
2022-12-17T16:56:39.672Z,42.20
2022-12-17T16:59:09.264Z,50.77
2022-12-17T17:01:38.121Z,42.67
2022-12-17T17:04:07.143Z,44.27
2022-12-17T17:06:39.510Z,43.50
2022-12-17T17:09:08.342Z,47.00
2022-12-17T17:11:36.841Z,46.27
2022-12-17T17:14:05.749Z,47.17
2022-12-17T17:16:34.493Z,50.17
2022-12-17T17:19:03.533Z,51.70
2022-12-17T17:21:32.612Z,49.50
2022-12-17T17:24:03.184Z,51.00
2022-12-17T17:26:33.396Z,48.80
2022-12-17T17:29:01.738Z,53.27
2022-12-17T17:31:46.716Z,48.00
2022-12-17T17:34:18.429Z,45.37
2022-12-17T17:36:46.671Z,50.33
2022-12-17T17:39:16.479Z,43.23
2022-12-17T17:41:44.927Z,48.67
2022-12-17T17:44:15.047Z,48.13
2022-12-17T17:46:43.552Z,49.70
2022-12-17T17:49:12.589Z,54.20
2022-12-17T17:54:32.255Z,57.27
2022-12-17T17:57:00.575Z,54.70
2022-12-17T17:59:33.426Z,58.57
2022-12-17T18:02:03.188Z,62.63
2022-12-17T18:04:31.924Z,47.67
2022-12-17T18:09:49.862Z,64.10
2022-12-17T18:12:36.147Z,59.70
2022-12-17T18:15:14.112Z,62.77
2022-12-17T18:17:43.684Z,67.33
2022-12-17T18:20:12.533Z,70.93
2022-12-17T18:22:40.804Z,58.57
2022-12-17T18:25:11.308Z,56.47
2022-12-17T18:27:39.939Z,55.90
2022-12-17T18:30:08.663Z,57.40
2022-12-17T18:32:36.974Z,60.47
2022-12-17T18:35:05.461Z,57.63
2022-12-17T18:37:33.758Z,68.20
2022-12-17T18:40:02.066Z,63.63
2022-12-17T18:42:49.580Z,60.00
2022-12-17T18:45:17.837Z,61.20
2022-12-17T18:47:46.200Z,64.13
2022-12-17T18:50:14.855Z,74.87
2022-12-17T18:52:43.358Z,71.77
2022-12-17T18:55:11.832Z,86.87
2022-12-17T18:57:41.639Z,80.27
2022-12-17T19:00:10.794Z,78.80
2022-12-17T19:02:39.236Z,78.87
2022-12-17T19:05:07.772Z,69.17
2022-12-17T19:07:36.082Z,74.03
2022-12-17T19:10:04.364Z,80.93
2022-12-17T19:12:33.093Z,69.43
2022-12-17T19:15:02.743Z,73.23
2022-12-17T19:17:31.043Z,77.03
2022-12-17T19:19:59.318Z,69.40
2022-12-17T19:22:27.607Z,62.43
2022-12-17T19:24:55.879Z,66.77
2022-12-17T19:27:24.555Z,69.50
2022-12-17T19:29:54.953Z,75.00
2022-12-17T19:32:24.781Z,68.97
2022-12-17T19:34:53.122Z,75.50
2022-12-17T19:37:21.377Z,69.47
2022-12-17T19:39:49.691Z,68.27
2022-12-17T19:42:25.514Z,66.03
2022-12-17T19:44:54.161Z,70.23
2022-12-17T19:47:22.768Z,57.40
2022-12-17T19:49:52.409Z,73.60
2022-12-17T19:52:20.699Z,74.17
2022-12-17T19:54:48.925Z,104.70
2022-12-17T19:57:17.189Z,76.33
2022-12-17T19:59:45.457Z,70.93
2022-12-17T20:02:15.641Z,63.27
2022-12-17T20:04:44.126Z,62.57
2022-12-17T20:07:13.805Z,85.67
2022-12-17T20:09:44.102Z,70.93
2022-12-17T20:12:12.547Z,82.30
2022-12-17T20:14:40.812Z,82.27
2022-12-17T20:17:09.099Z,69.63
2022-12-17T20:19:37.416Z,100.63
2022-12-17T20:22:07.093Z,80.33
2022-12-17T20:24:39.159Z,66.23
2022-12-17T20:27:08.040Z,78.53
2022-12-17T20:29:36.811Z,77.00
2022-12-17T20:32:05.261Z,68.07
2022-12-17T20:34:33.604Z,77.83
2022-12-17T20:37:01.844Z,69.67
2022-12-17T20:39:30.126Z,68.60
2022-12-17T20:41:59.808Z,74.73
2022-12-17T20:44:28.836Z,69.17
2022-12-17T20:46:57.288Z,100.47
2022-12-17T20:49:25.538Z,93.83
2022-12-17T20:51:53.825Z,76.37
2022-12-17T20:54:22.114Z,130.30
2022-12-17T20:56:50.382Z,78.33
2022-12-17T20:59:20.763Z,82.73
2022-12-17T21:01:54.468Z,90.20
2022-12-17T21:04:24.177Z,90.27
2022-12-17T21:06:52.897Z,72.37
2022-12-17T21:09:22.566Z,101.10
2022-12-17T21:11:51.019Z,85.00
2022-12-17T21:14:21.084Z,91.27
2022-12-17T21:16:52.770Z,72.60
2022-12-17T21:19:21.148Z,89.70
2022-12-17T21:21:49.560Z,73.60
2022-12-17T21:24:17.985Z,73.57
2022-12-17T21:26:47.043Z,65.17
2022-12-17T21:29:15.919Z,72.67
2022-12-17T21:31:46.311Z,79.40
2022-12-17T21:34:15.557Z,71.03
2022-12-17T21:36:44.051Z,67.57
2022-12-17T21:39:14.011Z,63.10
2022-12-17T21:41:44.682Z,60.57
2022-12-17T21:44:14.545Z,64.57
2022-12-17T21:46:45.588Z,64.57
2022-12-17T21:49:20.024Z,67.17
2022-12-17T21:51:48.556Z,84.93
2022-12-17T21:54:19.748Z,64.73
2022-12-17T21:56:50.424Z,63.93
2022-12-17T21:59:18.869Z,72.30
2022-12-17T22:01:47.243Z,73.07
2022-12-17T22:04:15.651Z,64.67
2022-12-17T22:06:47.827Z,74.83
2022-12-17T22:09:45.104Z,66.63
2022-12-17T22:12:29.363Z,65.93
2022-12-17T22:14:57.645Z,67.67
2022-12-17T22:17:26.376Z,103.50
2022-12-17T22:19:54.677Z,73.40
2022-12-17T22:22:24.365Z,68.00
2022-12-17T22:24:52.642Z,66.37
2022-12-17T22:27:21.016Z,68.40
2022-12-17T22:30:10.190Z,124.40
2022-12-17T22:32:56.085Z,72.23
2022-12-17T22:37:36.236Z,65.93
2022-12-17T22:41:51.880Z,73.33
2022-12-17T22:43:41.664Z,83.60
2022-12-17T22:44:44.261Z,72.63
2022-12-17T22:46:43.601Z,74.40
2022-12-17T22:49:12.219Z,69.27
2022-12-17T22:51:41.827Z,63.37
2022-12-17T22:54:13.130Z,66.20
2022-12-17T22:57:03.303Z,53.23
2022-12-17T22:59:30.773Z,138.97
2022-12-17T23:01:59.134Z,49.30
2022-12-17T23:04:27.558Z,53.87
2022-12-17T23:06:55.970Z,56.03
2022-12-17T23:09:25.597Z,60.80
2022-12-17T23:11:53.861Z,58.40
2022-12-17T23:14:22.111Z,53.97
2022-12-17T23:16:50.360Z,45.77
2022-12-17T23:19:19.214Z,56.67
2022-12-17T23:21:47.424Z,46.93
2022-12-17T23:24:15.674Z,44.17
2022-12-17T23:26:45.282Z,41.63
2022-12-17T23:29:19.343Z,47.67
2022-12-17T23:31:48.414Z,45.77
2022-12-17T23:34:17.270Z,67.33
2022-12-17T23:36:45.513Z,38.80
2022-12-17T23:39:13.877Z,38.97
2022-12-17T23:41:42.311Z,37.80
2022-12-17T23:44:11.966Z,38.57
2022-12-17T23:46:40.210Z,38.00
2022-12-17T23:49:08.539Z,35.93
2022-12-17T23:51:36.818Z,36.37
2022-12-17T23:54:05.325Z,35.57
2022-12-17T23:56:33.547Z,33.97
2022-12-17T23:59:03.081Z,32.23
